createdAt,value
2019-04-25T00:00:52.593Z,16.96
2019-04-25T00:01:52.582Z,16.93
2019-04-25T00:02:52.578Z,16.86
2019-04-25T00:03:53.397Z,16.89
2019-04-25T00:04:52.591Z,16.89
2019-04-25T00:05:52.547Z,16.91
2019-04-25T00:06:52.532Z,17.03
2019-04-25T00:07:52.518Z,17.06
2019-04-25T00:08:53.485Z,16.94
2019-04-25T00:09:52.532Z,17.03
2019-04-25T00:10:52.481Z,16.94
2019-04-25T00:11:52.479Z,16.98
2019-04-25T00:12:52.464Z,17.00
2019-04-25T00:13:52.462Z,17.00
2019-04-25T00:14:52.474Z,16.96
2019-04-25T00:15:52.437Z,16.96
2019-04-25T00:16:52.418Z,17.06
2019-04-25T00:17:52.422Z,17.00
2019-04-25T00:18:52.393Z,17.00
2019-04-25T00:19:52.827Z,17.06
2019-04-25T00:20:52.416Z,16.97
2019-04-25T00:21:52.365Z,16.85
2019-04-25T00:22:53.400Z,16.96
2019-04-25T00:23:52.335Z,16.89
2019-04-25T00:24:53.000Z,17.01
2019-04-25T00:25:52.798Z,16.89
2019-04-25T00:26:53.493Z,16.91
2019-04-25T00:27:53.180Z,16.88
2019-04-25T00:28:52.654Z,16.88
2019-04-25T00:29:52.954Z,16.89
2019-04-25T00:30:53.107Z,16.85
2019-04-25T00:31:53.189Z,16.85
2019-04-25T00:32:52.239Z,16.82
2019-04-25T00:33:53.309Z,16.88
2019-04-25T00:34:52.839Z,16.82
2019-04-25T00:35:52.798Z,16.82
2019-04-25T00:36:53.136Z,16.88
2019-04-25T00:37:52.560Z,16.86
2019-04-25T00:38:53.247Z,16.86
2019-04-25T00:39:52.163Z,16.83
2019-04-25T00:40:53.518Z,17.01
2019-04-25T00:41:52.145Z,16.97
2019-04-25T00:42:53.668Z,17.01
2019-04-25T00:43:52.643Z,16.97
2019-04-25T00:44:52.506Z,16.91
2019-04-25T00:45:52.727Z,16.88
2019-04-25T00:46:56.174Z,16.89
2019-04-25T00:47:52.936Z,16.91
2019-04-25T00:48:52.708Z,16.96
2019-04-25T00:49:52.429Z,17.03
2019-04-25T00:50:54.586Z,16.85
2019-04-25T00:51:53.009Z,16.86
2019-04-25T00:52:53.580Z,16.85
2019-04-25T00:53:54.729Z,16.86
2019-04-25T00:54:52.637Z,16.82
2019-04-25T00:55:53.622Z,16.81
2019-04-25T00:56:52.756Z,16.71
2019-04-25T00:57:52.821Z,16.68
2019-04-25T00:58:53.141Z,16.66
2019-04-25T00:59:53.165Z,16.68
2019-04-25T01:00:53.346Z,16.61
2019-04-25T01:01:53.257Z,16.63
2019-04-25T01:02:53.398Z,16.58
2019-04-25T01:03:53.632Z,16.68
2019-04-25T01:04:52.969Z,16.60
2019-04-25T01:05:53.308Z,16.61
2019-04-25T01:06:52.900Z,16.61
2019-04-25T01:07:53.250Z,16.60
2019-04-25T01:08:54.566Z,16.56
2019-04-25T01:09:52.495Z,16.56
2019-04-25T01:10:52.317Z,16.58
2019-04-25T01:11:52.364Z,16.61
2019-04-25T01:12:52.344Z,16.52
2019-04-25T01:13:52.517Z,16.61
2019-04-25T01:14:52.846Z,16.57
2019-04-25T01:15:52.877Z,16.63
2019-04-25T01:16:53.012Z,16.61
2019-04-25T01:17:52.613Z,16.58
2019-04-25T01:18:51.727Z,16.49
2019-04-25T01:19:51.709Z,16.48
2019-04-25T01:20:53.311Z,16.49
2019-04-25T01:21:51.723Z,16.49
2019-04-25T01:22:51.678Z,16.52
2019-04-25T01:23:53.280Z,16.45
2019-04-25T01:24:51.659Z,16.46
2019-04-25T01:25:53.434Z,16.43
2019-04-25T01:26:51.708Z,16.48
2019-04-25T01:27:52.330Z,16.50
2019-04-25T01:28:51.890Z,16.46
2019-04-25T01:29:51.988Z,16.48
2019-04-25T01:30:52.082Z,16.38
2019-04-25T01:31:52.682Z,16.31
2019-04-25T01:32:52.921Z,16.43
2019-04-25T01:33:52.816Z,16.41
2019-04-25T01:34:54.683Z,16.31
2019-04-25T01:35:54.286Z,16.35
2019-04-25T01:36:51.568Z,16.45
2019-04-25T01:37:51.513Z,16.31
2019-04-25T01:38:53.630Z,16.49
2019-04-25T01:39:51.482Z,16.46
2019-04-25T01:40:53.076Z,16.43
2019-04-25T01:41:51.466Z,16.45
2019-04-25T01:42:51.631Z,16.50
2019-04-25T01:43:53.233Z,16.49
2019-04-25T01:44:54.217Z,16.42
2019-04-25T01:45:51.835Z,16.39
2019-04-25T01:46:51.871Z,16.50
2019-04-25T01:47:52.472Z,16.43
2019-04-25T01:48:52.630Z,16.52
2019-04-25T01:49:52.271Z,16.50
2019-04-25T01:50:52.788Z,16.53
2019-04-25T01:51:52.390Z,16.42
2019-04-25T01:52:51.376Z,16.48
2019-04-25T01:53:51.333Z,16.48
2019-04-25T01:54:51.325Z,16.52
2019-04-25T01:55:58.097Z,16.49
2019-04-25T01:56:53.575Z,16.53
2019-04-25T01:57:51.313Z,16.48
2019-04-25T01:58:51.292Z,16.53
2019-04-25T01:59:51.428Z,16.46
2019-04-25T02:00:52.081Z,16.50
2019-04-25T02:01:51.243Z,16.42
2019-04-25T02:02:51.259Z,16.50
2019-04-25T02:03:51.287Z,16.50
2019-04-25T02:04:51.435Z,16.48
2019-04-25T02:05:51.406Z,16.49
2019-04-25T02:06:51.479Z,16.56
2019-04-25T02:07:51.508Z,16.52
2019-04-25T02:08:51.731Z,16.43
2019-04-25T02:09:52.276Z,16.50
2019-04-25T02:10:51.137Z,16.57
2019-04-25T02:11:51.127Z,16.66
2019-04-25T02:12:51.391Z,16.63
2019-04-25T02:13:51.484Z,16.67
2019-04-25T02:14:51.946Z,16.64
2019-04-25T02:15:52.165Z,16.60
2019-04-25T02:16:51.780Z,16.67
2019-04-25T02:17:51.882Z,16.61
2019-04-25T02:18:51.928Z,16.58
2019-04-25T02:19:51.974Z,16.63
2019-04-25T02:20:52.254Z,16.64
2019-04-25T02:21:51.453Z,16.66
2019-04-25T02:22:51.532Z,16.66
2019-04-25T02:23:51.625Z,16.61
2019-04-25T02:24:51.828Z,16.46
2019-04-25T02:26:04.485Z,16.39
2019-04-25T02:26:53.240Z,16.48
2019-04-25T02:27:50.985Z,16.34
2019-04-25T02:28:50.941Z,16.41
2019-04-25T02:29:50.923Z,16.33
2019-04-25T02:30:50.915Z,16.33
2019-04-25T02:31:50.898Z,16.38
2019-04-25T02:32:50.930Z,16.39
2019-04-25T02:33:50.880Z,16.33
2019-04-25T02:34:50.869Z,16.41
2019-04-25T02:35:50.859Z,16.49
2019-04-25T02:36:50.842Z,16.43
2019-04-25T02:37:50.867Z,16.35
2019-04-25T02:38:50.821Z,16.34
2019-04-25T02:39:50.817Z,16.43
2019-04-25T02:40:50.804Z,16.39
2019-04-25T02:41:50.790Z,16.25
2019-04-25T02:42:50.809Z,16.23
2019-04-25T02:43:50.766Z,16.27
2019-04-25T02:44:50.751Z,16.23
2019-04-25T02:45:50.748Z,16.15
2019-04-25T02:46:50.735Z,16.15
2019-04-25T02:47:50.727Z,16.12
2019-04-25T02:48:50.741Z,16.14
2019-04-25T02:49:50.735Z,16.01
2019-04-25T02:50:50.692Z,16.04
2019-04-25T02:51:50.683Z,16.05
2019-04-25T02:52:50.670Z,16.05
2019-04-25T02:53:50.682Z,16.02
2019-04-25T02:54:50.647Z,16.02
2019-04-25T02:55:50.631Z,16.01
2019-04-25T02:56:50.618Z,16.01
2019-04-25T02:57:50.606Z,16.04
2019-04-25T02:58:50.630Z,16.02
2019-04-25T02:59:50.586Z,16.02
2019-04-25T03:00:59.863Z,16.04
2019-04-25T03:01:54.031Z,16.07
2019-04-25T03:02:50.563Z,16.00
2019-04-25T03:03:50.574Z,16.05
2019-04-25T03:04:50.552Z,15.96
2019-04-25T03:05:50.517Z,16.04
2019-04-25T03:06:50.516Z,16.04
2019-04-25T03:07:50.526Z,16.01
2019-04-25T03:08:50.512Z,16.04
2019-04-25T03:09:50.476Z,16.04
2019-04-25T03:10:50.466Z,16.00
2019-04-25T03:11:50.447Z,16.05
2019-04-25T03:12:50.442Z,16.01
2019-04-25T03:13:50.459Z,15.92
2019-04-25T03:14:50.422Z,16.02
2019-04-25T03:15:52.781Z,15.97
2019-04-25T03:16:50.390Z,16.01
2019-04-25T03:17:50.384Z,16.00
2019-04-25T03:18:50.402Z,16.08
2019-04-25T03:19:50.361Z,16.05
2019-04-25T03:20:50.350Z,16.07
2019-04-25T03:21:50.341Z,16.07
2019-04-25T03:22:50.347Z,16.12
2019-04-25T03:23:50.317Z,16.14
2019-04-25T03:24:50.335Z,16.11
2019-04-25T03:25:50.288Z,16.11
2019-04-25T03:26:50.286Z,16.09
2019-04-25T03:27:50.271Z,16.09
2019-04-25T03:28:50.256Z,16.02
2019-04-25T03:29:50.274Z,16.09
2019-04-25T03:30:50.267Z,16.07
2019-04-25T03:31:50.221Z,15.97
2019-04-25T03:32:51.631Z,16.04
2019-04-25T03:33:50.203Z,16.08
2019-04-25T03:34:50.235Z,16.08
2019-04-25T03:35:50.181Z,16.09
2019-04-25T03:36:50.168Z,16.05
2019-04-25T03:37:50.155Z,16.02
2019-04-25T03:38:50.155Z,16.09
2019-04-25T03:39:50.180Z,16.14
2019-04-25T03:40:50.129Z,16.11
2019-04-25T03:41:50.107Z,16.07
2019-04-25T03:42:50.100Z,16.07
2019-04-25T03:43:50.085Z,16.11
2019-04-25T03:44:50.119Z,16.02
2019-04-25T03:45:50.063Z,16.09
2019-04-25T03:46:50.055Z,16.01
2019-04-25T03:47:50.039Z,16.04
2019-04-25T03:48:50.028Z,16.05
2019-04-25T03:49:50.055Z,16.05
2019-04-25T03:50:50.012Z,16.07
2019-04-25T03:51:50.000Z,15.89
2019-04-25T03:52:49.997Z,15.93
2019-04-25T03:53:49.986Z,15.97
2019-04-25T03:54:49.996Z,15.93
2019-04-25T03:55:49.949Z,15.89
2019-04-25T03:56:55.455Z,15.96
2019-04-25T03:57:50.930Z,15.83
2019-04-25T03:58:49.915Z,15.87
2019-04-25T03:59:49.941Z,15.80
2019-04-25T04:00:49.916Z,15.76
2019-04-25T04:01:49.893Z,15.82
2019-04-25T04:02:49.875Z,15.80
2019-04-25T04:03:49.870Z,15.80
2019-04-25T04:04:49.884Z,15.76
2019-04-25T04:05:49.842Z,15.78
2019-04-25T04:06:49.832Z,15.80
2019-04-25T04:07:49.824Z,15.80
2019-04-25T04:08:49.805Z,15.71
2019-04-25T04:09:49.822Z,15.71
2019-04-25T04:10:49.784Z,15.71
2019-04-25T04:11:49.771Z,15.62
2019-04-25T04:12:49.765Z,15.64
2019-04-25T04:13:49.751Z,15.69
2019-04-25T04:14:49.784Z,15.65
2019-04-25T04:15:49.732Z,15.60
2019-04-25T04:16:49.712Z,15.53
2019-04-25T04:17:49.726Z,15.54
2019-04-25T04:18:49.695Z,15.49
2019-04-25T04:19:49.678Z,15.51
2019-04-25T04:20:49.716Z,15.54
2019-04-25T04:21:49.670Z,15.51
2019-04-25T04:22:49.648Z,15.54
2019-04-25T04:23:49.634Z,15.50
2019-04-25T04:24:49.630Z,15.51
2019-04-25T04:25:49.642Z,15.51
2019-04-25T04:26:49.612Z,15.57
2019-04-25T04:27:49.593Z,15.51
2019-04-25T04:28:49.584Z,15.44
2019-04-25T04:29:49.593Z,15.43
2019-04-25T04:30:49.593Z,15.43
2019-04-25T04:31:49.558Z,15.41
2019-04-25T04:32:49.538Z,15.44
2019-04-25T04:33:49.522Z,15.31
2019-04-25T04:34:49.515Z,15.38
2019-04-25T04:35:49.535Z,15.36
2019-04-25T04:36:49.497Z,15.32
2019-04-25T04:37:49.476Z,15.36
2019-04-25T04:38:49.554Z,15.20
2019-04-25T04:39:49.461Z,15.27
2019-04-25T04:40:49.474Z,15.23
2019-04-25T04:41:49.469Z,15.31
2019-04-25T04:42:49.429Z,15.29
2019-04-25T04:43:49.420Z,15.25
2019-04-25T04:44:49.399Z,15.28
2019-04-25T04:45:49.424Z,15.25
2019-04-25T04:46:49.382Z,15.23
2019-04-25T04:47:49.367Z,15.20
2019-04-25T04:48:49.360Z,15.14
2019-04-25T04:49:49.352Z,15.10
2019-04-25T04:50:49.361Z,15.11
2019-04-25T04:51:49.320Z,15.14
2019-04-25T04:52:49.310Z,15.02
2019-04-25T04:53:49.301Z,15.03
2019-04-25T04:54:49.286Z,14.98
2019-04-25T04:55:49.316Z,14.99
2019-04-25T04:56:49.274Z,14.98
2019-04-25T04:57:49.255Z,14.92
2019-04-25T04:58:49.249Z,14.94
2019-04-25T04:59:49.236Z,14.88
2019-04-25T05:00:49.276Z,14.91
2019-04-25T05:01:49.219Z,14.94
2019-04-25T05:02:49.205Z,14.94
2019-04-25T05:03:49.195Z,14.91
2019-04-25T05:04:49.177Z,14.92
2019-04-25T05:05:49.201Z,14.88
2019-04-25T05:06:49.154Z,14.83
2019-04-25T05:07:49.142Z,14.75
2019-04-25T05:08:49.138Z,14.77
2019-04-25T05:09:49.119Z,14.80
2019-04-25T05:10:49.152Z,14.83
2019-04-25T05:11:49.103Z,14.75
2019-04-25T05:12:49.089Z,14.72
2019-04-25T05:13:49.081Z,14.72
2019-04-25T05:14:49.065Z,14.70
2019-04-25T05:15:49.085Z,14.72
2019-04-25T05:16:49.599Z,14.72
2019-04-25T05:17:49.040Z,14.68
2019-04-25T05:18:49.020Z,14.70
2019-04-25T05:19:49.018Z,14.70
2019-04-25T05:20:49.039Z,14.75
2019-04-25T05:21:48.991Z,14.73
2019-04-25T05:22:48.977Z,14.73
2019-04-25T05:23:48.980Z,14.72
2019-04-25T05:24:48.955Z,14.64
2019-04-25T05:25:48.975Z,14.69
2019-04-25T05:26:48.930Z,14.73
2019-04-25T05:27:59.448Z,14.61
2019-04-25T05:28:49.909Z,14.64
2019-04-25T05:29:48.905Z,14.65
2019-04-25T05:30:48.915Z,14.70
2019-04-25T05:31:48.873Z,14.70
2019-04-25T05:32:48.928Z,14.72
2019-04-25T05:33:48.859Z,14.69
2019-04-25T05:34:49.415Z,14.69
2019-04-25T05:35:48.879Z,14.62
2019-04-25T05:36:48.826Z,14.69
2019-04-25T05:37:48.813Z,14.65
2019-04-25T05:38:48.802Z,14.65
2019-04-25T05:39:48.787Z,14.65
2019-04-25T05:40:48.780Z,14.64
2019-04-25T05:41:48.796Z,14.69
2019-04-25T05:42:48.752Z,14.65
2019-04-25T05:43:48.739Z,14.61
2019-04-25T05:44:48.733Z,14.65
2019-04-25T05:45:48.721Z,14.68
2019-04-25T05:46:48.743Z,14.68
2019-04-25T05:47:48.700Z,14.73
2019-04-25T05:48:48.685Z,14.75
2019-04-25T05:49:48.680Z,14.77
2019-04-25T05:50:48.663Z,14.80
2019-04-25T05:51:48.691Z,14.80
2019-04-25T05:52:48.641Z,14.86
2019-04-25T05:53:48.628Z,14.96
2019-04-25T05:54:48.617Z,15.02
2019-04-25T05:55:48.611Z,15.11
2019-04-25T05:56:48.637Z,15.13
2019-04-25T05:57:50.201Z,15.07
2019-04-25T05:58:48.580Z,15.17
2019-04-25T05:59:48.566Z,15.17
2019-04-25T06:00:48.558Z,15.31
2019-04-25T06:01:48.574Z,15.20
2019-04-25T06:02:48.536Z,15.39
2019-04-25T06:03:48.531Z,15.43
2019-04-25T06:04:48.509Z,15.43
2019-04-25T06:05:48.508Z,15.43
2019-04-25T06:06:48.561Z,15.50
2019-04-25T06:07:48.493Z,15.50
2019-04-25T06:08:48.468Z,15.56
2019-04-25T06:09:48.458Z,15.56
2019-04-25T06:10:48.441Z,15.62
2019-04-25T06:11:48.469Z,15.62
2019-04-25T06:12:48.434Z,15.69
2019-04-25T06:13:48.403Z,15.72
2019-04-25T06:14:48.393Z,15.68
2019-04-25T06:15:48.380Z,15.75
2019-04-25T06:16:48.400Z,15.89
2019-04-25T06:17:48.372Z,15.80
2019-04-25T06:18:48.356Z,15.94
2019-04-25T06:19:48.344Z,15.92
2019-04-25T06:20:48.324Z,15.89
2019-04-25T06:21:48.343Z,15.96
2019-04-25T06:22:48.306Z,15.93
2019-04-25T06:23:48.303Z,15.90
2019-04-25T06:24:48.338Z,15.90
2019-04-25T06:25:48.267Z,15.97
2019-04-25T06:26:48.321Z,16.07
2019-04-25T06:27:56.528Z,16.12
2019-04-25T06:28:57.076Z,16.20
2019-04-25T06:29:58.059Z,16.12
2019-04-25T06:30:49.218Z,16.20
2019-04-25T06:31:48.208Z,16.25
2019-04-25T06:32:48.243Z,16.24
2019-04-25T06:33:48.294Z,16.25
2019-04-25T06:34:48.171Z,16.27
2019-04-25T06:35:48.176Z,16.23
2019-04-25T06:36:48.144Z,16.24
2019-04-25T06:37:48.166Z,16.20
2019-04-25T06:38:48.122Z,16.17
2019-04-25T06:39:48.115Z,16.23
2019-04-25T06:40:48.098Z,16.21
2019-04-25T06:41:48.093Z,16.20
2019-04-25T06:42:48.115Z,16.17
2019-04-25T06:43:48.074Z,16.25
2019-04-25T06:44:48.054Z,16.20
2019-04-25T06:45:50.163Z,16.24
2019-04-25T06:46:48.038Z,16.24
2019-04-25T06:47:48.053Z,16.28
2019-04-25T06:48:48.014Z,16.28
2019-04-25T06:49:48.002Z,16.27
2019-04-25T06:50:47.994Z,16.31
2019-04-25T06:51:47.996Z,16.25
2019-04-25T06:52:48.000Z,16.17
2019-04-25T06:53:47.958Z,16.12
2019-04-25T06:54:47.945Z,16.21
2019-04-25T06:55:47.936Z,16.15
2019-04-25T06:56:47.919Z,16.17
2019-04-25T06:57:47.953Z,16.25
2019-04-25T06:58:47.902Z,16.30
2019-04-25T06:59:47.888Z,16.35
2019-04-25T07:00:57.989Z,16.39
2019-04-25T07:01:48.872Z,16.38
2019-04-25T07:02:47.900Z,16.42
2019-04-25T07:03:47.853Z,16.35
2019-04-25T07:04:47.831Z,16.24
2019-04-25T07:05:47.833Z,16.25
2019-04-25T07:06:49.473Z,16.27
2019-04-25T07:07:47.841Z,16.28
2019-04-25T07:08:47.801Z,16.28
2019-04-25T07:09:47.804Z,16.39
2019-04-25T07:10:47.764Z,16.39
2019-04-25T07:11:48.256Z,16.43
2019-04-25T07:12:47.772Z,16.38
2019-04-25T07:13:47.732Z,16.41
2019-04-25T07:14:47.723Z,16.41
2019-04-25T07:15:47.708Z,16.42
2019-04-25T07:16:47.705Z,16.41
2019-04-25T07:17:47.715Z,16.46
2019-04-25T07:18:47.672Z,16.41
2019-04-25T07:19:47.671Z,16.43
2019-04-25T07:20:47.650Z,16.48
2019-04-25T07:21:47.645Z,16.46
2019-04-25T07:22:47.634Z,16.49
2019-04-25T07:23:47.657Z,16.50
2019-04-25T07:24:47.608Z,16.53
2019-04-25T07:25:47.601Z,16.49
2019-04-25T07:26:47.606Z,16.46
2019-04-25T07:27:47.585Z,16.46
2019-04-25T07:28:47.597Z,16.53
2019-04-25T07:29:47.554Z,16.49
2019-04-25T07:30:51.960Z,16.48
2019-04-25T07:31:48.531Z,16.52
2019-04-25T07:32:47.522Z,16.53
2019-04-25T07:33:47.535Z,16.48
2019-04-25T07:34:47.498Z,16.49
2019-04-25T07:35:47.490Z,16.57
2019-04-25T07:36:47.485Z,16.57
2019-04-25T07:37:47.479Z,16.53
2019-04-25T07:38:47.492Z,16.64
2019-04-25T07:39:47.439Z,16.58
2019-04-25T07:40:47.427Z,16.66
2019-04-25T07:41:47.415Z,16.60
2019-04-25T07:42:47.404Z,16.76
2019-04-25T07:43:47.423Z,16.73
2019-04-25T07:44:52.621Z,16.75
2019-04-25T07:45:48.368Z,16.76
2019-04-25T07:46:47.370Z,16.78
2019-04-25T07:47:47.381Z,16.85
2019-04-25T07:48:47.381Z,16.86
2019-04-25T07:49:47.326Z,16.93
2019-04-25T07:50:47.317Z,16.88
2019-04-25T07:51:47.318Z,16.85
2019-04-25T07:52:47.299Z,17.04
2019-04-25T07:53:47.316Z,17.11
2019-04-25T07:54:47.271Z,17.11
2019-04-25T07:55:47.257Z,17.12
2019-04-25T07:56:47.255Z,17.15
2019-04-25T07:57:47.239Z,17.11
2019-04-25T07:58:52.224Z,17.21
2019-04-25T07:59:48.213Z,17.23
2019-04-25T08:00:47.204Z,17.26
2019-04-25T08:01:47.195Z,17.33
2019-04-25T08:02:47.179Z,17.37
2019-04-25T08:03:47.228Z,17.34
2019-04-25T08:04:47.166Z,17.48
2019-04-25T08:05:47.187Z,17.54
2019-04-25T08:06:47.142Z,17.63
2019-04-25T08:07:47.125Z,17.62
2019-04-25T08:08:47.179Z,17.56
2019-04-25T08:09:47.124Z,17.49
2019-04-25T08:10:47.091Z,17.58
2019-04-25T08:11:47.083Z,17.54
2019-04-25T08:12:47.481Z,17.58
2019-04-25T08:13:47.056Z,17.71
2019-04-25T08:14:47.086Z,17.71
2019-04-25T08:15:47.034Z,17.70
2019-04-25T08:16:47.044Z,17.71
2019-04-25T08:17:47.011Z,17.77
2019-04-25T08:18:47.000Z,17.81
2019-04-25T08:19:47.025Z,17.79
2019-04-25T08:20:46.981Z,17.81
2019-04-25T08:21:46.974Z,17.89
2019-04-25T08:22:55.855Z,17.87
2019-04-25T08:23:47.954Z,17.96
2019-04-25T08:24:46.994Z,18.02
2019-04-25T08:25:46.938Z,18.02
2019-04-25T08:26:46.918Z,18.02
2019-04-25T08:27:46.915Z,18.18
2019-04-25T08:28:55.039Z,18.05
2019-04-25T08:29:47.908Z,18.23
2019-04-25T08:30:46.881Z,18.25
2019-04-25T08:31:46.861Z,18.21
2019-04-25T08:32:46.862Z,18.32
2019-04-25T08:33:46.868Z,18.39
2019-04-25T08:34:46.860Z,18.45
2019-04-25T08:36:03.412Z,18.35
2019-04-25T08:36:47.797Z,18.42
2019-04-25T08:37:46.789Z,18.41
2019-04-25T08:38:46.786Z,18.33
2019-04-25T08:39:46.799Z,18.37
2019-04-25T08:40:46.758Z,18.32
2019-04-25T08:41:46.746Z,18.54
2019-04-25T08:42:46.731Z,18.50
2019-04-25T08:43:46.720Z,18.55
2019-04-25T08:44:46.744Z,18.54
2019-04-25T08:45:46.700Z,18.52
2019-04-25T08:46:48.673Z,18.54
2019-04-25T08:47:46.685Z,18.50
2019-04-25T08:48:46.668Z,18.52
2019-04-25T08:49:49.364Z,18.52
2019-04-25T08:50:46.661Z,18.55
2019-04-25T08:51:46.646Z,18.63
2019-04-25T08:52:46.624Z,18.60
2019-04-25T08:53:46.630Z,18.75
2019-04-25T08:54:47.711Z,18.78
2019-04-25T08:55:46.590Z,18.72
2019-04-25T08:56:46.578Z,18.84
2019-04-25T08:57:46.575Z,18.81
2019-04-25T08:58:46.561Z,18.80
2019-04-25T08:59:52.275Z,18.69
2019-04-25T09:00:58.286Z,18.80
2019-04-25T09:01:47.524Z,18.76
2019-04-25T09:02:46.522Z,18.75
2019-04-25T09:03:46.500Z,18.75
2019-04-25T09:04:46.528Z,18.76
2019-04-25T09:05:46.553Z,18.84
2019-04-25T09:06:46.465Z,18.81
2019-04-25T09:07:46.447Z,18.82
2019-04-25T09:08:46.704Z,18.82
2019-04-25T09:09:46.471Z,18.90
2019-04-25T09:10:46.415Z,18.98
2019-04-25T09:11:47.053Z,18.95
2019-04-25T09:12:46.398Z,19.02
2019-04-25T09:13:46.402Z,18.99
2019-04-25T09:14:46.516Z,19.06
2019-04-25T09:15:46.364Z,18.99
2019-04-25T09:16:46.346Z,19.07
2019-04-25T09:17:47.157Z,18.99
2019-04-25T09:18:46.527Z,19.16
2019-04-25T09:19:46.320Z,19.13
2019-04-25T09:20:46.817Z,19.18
2019-04-25T09:21:49.519Z,19.21
2019-04-25T09:22:46.296Z,19.29
2019-04-25T09:23:46.287Z,19.32
2019-04-25T09:24:46.258Z,19.43
2019-04-25T09:25:46.328Z,19.48
2019-04-25T09:26:46.243Z,19.59
2019-04-25T09:27:47.056Z,19.59
2019-04-25T09:28:46.702Z,19.69
2019-04-25T09:29:46.543Z,19.74
2019-04-25T09:30:46.238Z,19.81
2019-04-25T09:31:46.183Z,19.84
2019-04-25T09:32:46.172Z,19.91
2019-04-25T09:33:46.749Z,19.87
2019-04-25T09:34:46.153Z,19.84
2019-04-25T09:35:46.164Z,19.83
2019-04-25T09:36:46.693Z,19.95
2019-04-25T09:37:46.234Z,19.98
2019-04-25T09:38:48.516Z,19.87
2019-04-25T09:39:46.090Z,19.88
2019-04-25T09:40:46.685Z,19.92
2019-04-25T09:41:46.219Z,20.03
2019-04-25T09:42:46.320Z,20.08
2019-04-25T09:43:46.913Z,20.06
2019-04-25T09:44:46.651Z,20.06
2019-04-25T09:45:46.115Z,20.17
2019-04-25T09:46:46.897Z,20.26
2019-04-25T09:47:46.019Z,20.31
2019-04-25T09:48:46.764Z,20.41
2019-04-25T09:49:46.286Z,20.38
2019-04-25T09:50:46.381Z,20.52
2019-04-25T09:51:46.780Z,20.38
2019-04-25T09:52:47.038Z,20.36
2019-04-25T09:53:50.967Z,20.47
2019-04-25T09:54:46.929Z,20.36
2019-04-25T09:55:47.234Z,20.41
2019-04-25T09:56:46.115Z,20.36
2019-04-25T09:57:46.020Z,20.36
2019-04-25T09:58:48.309Z,20.43
2019-04-25T09:59:46.206Z,20.42
2019-04-25T10:00:46.005Z,20.48
2019-04-25T10:01:46.190Z,20.51
2019-04-25T10:02:45.831Z,20.52
2019-04-25T10:03:45.824Z,20.59
2019-04-25T10:04:46.370Z,20.61
2019-04-25T10:05:46.840Z,20.55
2019-04-25T10:06:46.090Z,20.55
2019-04-25T10:07:46.347Z,20.59
2019-04-25T10:08:46.341Z,20.73
2019-04-25T10:09:46.247Z,20.74
2019-04-25T10:10:46.705Z,20.80
2019-04-25T10:11:46.561Z,20.88
2019-04-25T10:12:45.725Z,20.91
2019-04-25T10:13:46.542Z,20.87
2019-04-25T10:14:47.909Z,20.89
2019-04-25T10:15:45.728Z,20.72
2019-04-25T10:16:45.711Z,20.85
2019-04-25T10:17:46.243Z,20.87
2019-04-25T10:18:45.899Z,20.97
2019-04-25T10:19:45.648Z,21.04
2019-04-25T10:20:46.306Z,21.14
2019-04-25T10:21:45.652Z,21.16
2019-04-25T10:22:46.557Z,21.28
2019-04-25T10:23:46.744Z,21.43
2019-04-25T10:24:58.410Z,21.47
2019-04-25T10:25:46.610Z,21.61
2019-04-25T10:26:46.366Z,21.56
2019-04-25T10:27:48.174Z,21.68
2019-04-25T10:28:45.538Z,21.77
2019-04-25T10:29:50.936Z,21.74
2019-04-25T10:30:46.907Z,21.83
2019-04-25T10:31:45.541Z,21.82
2019-04-25T10:32:46.279Z,21.90
2019-04-25T10:33:46.955Z,21.90
2019-04-25T10:34:46.197Z,21.88
2019-04-25T10:35:50.810Z,21.90
2019-04-25T10:36:46.827Z,21.98
2019-04-25T10:37:46.501Z,21.82
2019-04-25T10:39:01.399Z,21.83
2019-04-25T10:39:46.422Z,21.92
2019-04-25T10:40:47.169Z,22.10
2019-04-25T10:41:46.751Z,22.21
2019-04-25T10:42:48.070Z,22.21
2019-04-25T10:43:46.085Z,22.12
2019-04-25T10:44:47.011Z,22.14
2019-04-25T10:45:46.336Z,22.00
2019-04-25T10:46:47.135Z,22.10
2019-04-25T10:47:45.339Z,22.12
2019-04-25T10:48:46.037Z,22.18
2019-04-25T10:49:45.937Z,22.17
2019-04-25T10:50:46.900Z,22.09
2019-04-25T10:51:45.812Z,22.18
2019-04-25T10:52:46.174Z,22.12
2019-04-25T10:53:46.771Z,22.39
2019-04-25T10:54:46.490Z,22.95
2019-04-25T10:55:45.489Z,24.60
2019-04-25T10:56:47.007Z,26.45
2019-04-25T10:57:46.409Z,28.03
2019-04-25T10:58:46.673Z,29.71
2019-04-25T10:59:55.269Z,31.36
2019-04-25T11:00:47.506Z,32.60
2019-04-25T11:01:46.352Z,33.53
2019-04-25T11:02:46.131Z,34.22
2019-04-25T11:03:45.565Z,35.28
2019-04-25T11:04:47.426Z,36.23
2019-04-25T11:05:45.231Z,36.93
2019-04-25T11:06:45.553Z,36.91
2019-04-25T11:07:45.115Z,37.27
2019-04-25T11:08:45.097Z,36.66
2019-04-25T11:09:46.781Z,35.45
2019-04-25T11:10:47.489Z,33.86
2019-04-25T11:11:45.849Z,32.87
2019-04-25T11:12:45.422Z,32.44
2019-04-25T11:13:45.316Z,32.93
2019-04-25T11:14:45.047Z,34.15
2019-04-25T11:15:45.030Z,34.69
2019-04-25T11:16:45.634Z,35.58
2019-04-25T11:17:45.908Z,36.60
2019-04-25T11:18:46.144Z,37.22
2019-04-25T11:19:44.998Z,36.94
2019-04-25T11:20:44.986Z,37.18
2019-04-25T11:21:45.628Z,37.89
2019-04-25T11:22:45.885Z,38.47
2019-04-25T11:23:47.663Z,39.25
2019-04-25T11:24:45.766Z,39.70
2019-04-25T11:25:45.922Z,39.78
2019-04-25T11:26:48.346Z,39.94
2019-04-25T11:27:47.336Z,40.39
2019-04-25T11:28:45.357Z,40.62
2019-04-25T11:29:45.977Z,40.83
2019-04-25T11:30:45.865Z,40.95
2019-04-25T11:31:45.920Z,41.06
2019-04-25T11:32:45.210Z,40.82
2019-04-25T11:33:44.885Z,40.58
2019-04-25T11:34:47.084Z,40.72
2019-04-25T11:35:46.799Z,40.80
2019-04-25T11:36:45.319Z,40.88
2019-04-25T11:37:44.878Z,40.76
2019-04-25T11:38:45.305Z,40.67
2019-04-25T11:39:45.975Z,40.94
2019-04-25T11:40:48.097Z,41.07
2019-04-25T11:41:47.389Z,40.80
2019-04-25T11:42:45.945Z,41.14
2019-04-25T11:43:46.315Z,41.47
2019-04-25T11:44:45.449Z,41.60
2019-04-25T11:45:45.073Z,41.76
2019-04-25T11:46:46.420Z,41.80
2019-04-25T11:47:46.227Z,41.67
2019-04-25T11:48:45.399Z,41.74
2019-04-25T11:49:46.378Z,41.70
2019-04-25T11:50:48.981Z,41.42
2019-04-25T11:51:46.110Z,41.33
2019-04-25T11:52:44.767Z,41.48
2019-04-25T11:53:45.927Z,41.29
2019-04-25T11:54:46.763Z,40.98
2019-04-25T11:55:44.871Z,40.58
2019-04-25T11:56:45.974Z,40.00
2019-04-25T11:57:48.655Z,39.85
2019-04-25T11:58:47.691Z,39.82
2019-04-25T11:59:47.877Z,39.43
2019-04-25T12:00:46.000Z,39.23
2019-04-25T12:01:45.330Z,39.54
2019-04-25T12:02:45.418Z,39.96
2019-04-25T12:03:46.578Z,40.31
2019-04-25T12:04:45.486Z,40.34
2019-04-25T12:05:45.841Z,40.51
2019-04-25T12:06:46.038Z,40.22
2019-04-25T12:07:45.437Z,39.94
2019-04-25T12:08:46.591Z,39.38
2019-04-25T12:09:45.786Z,38.56
2019-04-25T12:10:45.739Z,37.91
2019-04-25T12:11:46.761Z,37.44
2019-04-25T12:12:47.204Z,36.99
2019-04-25T12:13:46.676Z,36.22
2019-04-25T12:14:46.127Z,35.55
2019-04-25T12:15:46.036Z,34.54
2019-04-25T12:16:48.457Z,33.61
2019-04-25T12:17:44.864Z,33.14
2019-04-25T12:18:47.716Z,32.79
2019-04-25T12:19:44.543Z,32.50
2019-04-25T12:20:46.254Z,32.23
2019-04-25T12:21:44.715Z,31.86
2019-04-25T12:22:45.382Z,31.46
2019-04-25T12:23:46.396Z,31.29
2019-04-25T12:24:45.406Z,30.86
2019-04-25T12:25:46.253Z,30.43
2019-04-25T12:26:46.513Z,30.08
2019-04-25T12:27:48.141Z,29.68
2019-04-25T12:28:45.942Z,29.57
2019-04-25T12:29:45.886Z,29.53
2019-04-25T12:30:45.807Z,29.19
2019-04-25T12:31:46.414Z,29.15
2019-04-25T12:32:46.395Z,29.00
2019-04-25T12:33:46.351Z,28.80
2019-04-25T12:34:44.914Z,28.83
2019-04-25T12:35:44.358Z,28.68
2019-04-25T12:36:44.524Z,28.71
2019-04-25T12:37:44.340Z,28.70
2019-04-25T12:38:46.026Z,28.71
2019-04-25T12:39:44.316Z,28.67
2019-04-25T12:40:44.309Z,28.66
2019-04-25T12:41:46.751Z,28.62
2019-04-25T12:42:44.503Z,28.54
2019-04-25T12:43:45.662Z,28.54
2019-04-25T12:44:46.263Z,28.41
2019-04-25T12:45:45.714Z,28.21
2019-04-25T12:46:45.917Z,27.93
2019-04-25T12:47:44.234Z,28.00
2019-04-25T12:48:45.892Z,27.92
2019-04-25T12:49:44.208Z,27.69
2019-04-25T12:50:44.199Z,27.63
2019-04-25T12:51:44.189Z,27.70
2019-04-25T12:52:44.183Z,27.62